createdAt,value
2022-11-08T00:02:27.622Z,19.90
2022-11-08T00:04:59.269Z,17.40
2022-11-08T00:07:48.372Z,18.20
2022-11-08T00:10:37.224Z,17.90
2022-11-08T00:13:28.136Z,18.40
2022-11-08T00:16:01.368Z,18.30
2022-11-08T00:18:32.878Z,19.90
2022-11-08T00:21:07.444Z,19.10
2022-11-08T00:23:38.962Z,22.00
2022-11-08T00:26:10.432Z,20.50
2022-11-08T00:28:41.997Z,23.50
2022-11-08T00:31:13.623Z,19.60
2022-11-08T00:36:15.030Z,17.90
2022-11-08T00:41:16.447Z,19.10
2022-11-08T00:43:48.112Z,18.70
2022-11-08T00:46:19.650Z,19.10
2022-11-08T00:48:51.575Z,19.60
2022-11-08T00:51:23.147Z,18.30
2022-11-08T00:53:54.672Z,18.90
2022-11-08T00:56:26.167Z,19.00
2022-11-08T00:58:57.895Z,19.70
2022-11-08T01:01:29.504Z,17.50
2022-11-08T01:06:31.604Z,17.10
2022-11-08T01:09:03.174Z,17.40
2022-11-08T01:14:04.684Z,17.10
2022-11-08T01:16:36.157Z,15.60
2022-11-08T01:19:07.532Z,16.00
2022-11-08T01:21:38.977Z,15.70
2022-11-08T01:24:11.213Z,14.80
2022-11-08T01:26:42.714Z,14.60
2022-11-08T01:29:14.189Z,15.60
2022-11-08T01:31:45.537Z,15.20
2022-11-08T01:34:17.081Z,15.90
2022-11-08T01:36:48.505Z,14.90
2022-11-08T01:39:20.000Z,14.70
2022-11-08T01:41:51.558Z,13.90
2022-11-08T01:44:23.113Z,15.50
2022-11-08T01:46:54.560Z,12.90
2022-11-08T01:49:43.777Z,14.00
2022-11-08T01:52:30.051Z,15.40
2022-11-08T01:55:03.993Z,15.10
2022-11-08T01:57:37.724Z,17.00
2022-11-08T02:00:12.645Z,16.30
2022-11-08T02:02:44.746Z,15.50
2022-11-08T02:05:26.916Z,14.90
2022-11-08T02:08:01.958Z,14.70
2022-11-08T02:10:35.797Z,15.50
2022-11-08T02:13:14.275Z,17.30
2022-11-08T02:15:46.690Z,26.20
2022-11-08T02:18:19.331Z,28.30
2022-11-08T02:20:56.095Z,24.50
2022-11-08T02:23:30.509Z,26.40
2022-11-08T02:26:01.991Z,29.50
2022-11-08T02:28:33.320Z,38.90
2022-11-08T02:31:04.895Z,36.80
2022-11-08T02:33:36.329Z,42.10
2022-11-08T02:36:08.783Z,33.40
2022-11-08T02:38:42.125Z,27.70
2022-11-08T02:41:13.858Z,27.90
2022-11-08T02:43:45.310Z,29.30
2022-11-08T02:46:16.936Z,22.10
2022-11-08T02:48:48.500Z,20.40
2022-11-08T02:51:20.224Z,19.20
2022-11-08T02:56:21.862Z,20.50
2022-11-08T03:01:23.699Z,19.20
2022-11-08T03:03:55.291Z,32.60
2022-11-08T03:06:26.972Z,46.40
2022-11-08T03:11:28.196Z,57.40
2022-11-08T03:13:59.631Z,59.60
2022-11-08T03:16:31.390Z,55.70
2022-11-08T03:21:32.999Z,48.60
2022-11-08T03:26:34.322Z,34.80
2022-11-08T03:29:05.687Z,33.10
2022-11-08T03:31:37.378Z,29.50
2022-11-08T03:36:39.218Z,42.70
2022-11-08T03:39:11.543Z,49.60
2022-11-08T03:41:43.113Z,37.20
2022-11-08T03:46:44.502Z,28.20
2022-11-08T03:49:15.962Z,25.80
2022-11-08T03:51:47.671Z,25.20
2022-11-08T03:56:48.996Z,26.30
2022-11-08T03:59:20.520Z,34.00
2022-11-08T04:01:52.315Z,40.80
2022-11-08T04:04:24.333Z,43.50
2022-11-08T04:06:56.282Z,34.00
2022-11-08T04:09:27.683Z,35.90
2022-11-08T04:12:16.794Z,36.80
2022-11-08T04:15:05.957Z,37.60
2022-11-08T04:17:54.924Z,33.30
2022-11-08T04:20:44.232Z,38.20
2022-11-08T04:23:15.858Z,45.00
2022-11-08T04:28:17.666Z,45.70
2022-11-08T04:30:52.899Z,49.00
2022-11-08T04:33:24.373Z,39.20
2022-11-08T04:38:27.866Z,27.00
2022-11-08T04:41:04.088Z,30.70
2022-11-08T04:43:35.524Z,28.90
2022-11-08T04:46:08.662Z,29.80
2022-11-08T04:48:40.340Z,27.10
2022-11-08T04:53:42.751Z,32.10
2022-11-08T04:56:15.098Z,32.40
2022-11-08T04:58:47.143Z,34.10
2022-11-08T05:01:19.501Z,40.00
2022-11-08T05:03:51.990Z,31.10
2022-11-08T05:06:24.379Z,21.20
2022-11-08T05:08:56.667Z,20.70
2022-11-08T05:11:28.804Z,19.50
2022-11-08T05:14:00.420Z,21.30
2022-11-08T05:19:01.954Z,27.30
2022-11-08T05:21:51.026Z,30.50
2022-11-08T05:24:22.477Z,30.80
2022-11-08T05:26:54.016Z,27.20
2022-11-08T05:29:25.436Z,28.00
2022-11-08T05:31:57.218Z,39.30
2022-11-08T05:34:29.915Z,36.90
2022-11-08T05:37:01.398Z,24.40
2022-11-08T05:39:33.181Z,17.70
2022-11-08T05:42:04.858Z,15.30
2022-11-08T05:44:36.369Z,12.70
2022-11-08T05:47:08.338Z,14.20
2022-11-08T05:49:39.724Z,31.20
2022-11-08T05:52:11.398Z,28.80
2022-11-08T05:57:12.773Z,32.40
2022-11-08T05:59:44.357Z,45.10
2022-11-08T06:02:15.924Z,39.90
2022-11-08T06:04:47.710Z,28.30
2022-11-08T06:07:19.266Z,22.20
2022-11-08T06:12:20.547Z,33.90
2022-11-08T06:14:52.137Z,28.70
2022-11-08T06:20:00.647Z,19.30
2022-11-08T06:22:34.471Z,17.00
2022-11-08T06:25:06.468Z,21.10
2022-11-08T06:27:37.992Z,18.40
2022-11-08T06:30:12.153Z,22.80
2022-11-08T06:32:43.809Z,20.20
2022-11-08T06:37:46.095Z,27.50
2022-11-08T06:40:18.096Z,27.60
2022-11-08T06:42:49.896Z,24.90
2022-11-08T06:45:21.561Z,24.30
2022-11-08T06:47:57.802Z,29.10
2022-11-08T06:50:29.662Z,23.80
2022-11-08T06:53:01.342Z,23.90
2022-11-08T06:58:02.745Z,26.90
2022-11-08T07:00:34.201Z,28.50
2022-11-08T07:03:05.896Z,33.00
2022-11-08T07:05:37.956Z,25.50
2022-11-08T07:08:09.962Z,24.40
2022-11-08T07:10:41.921Z,22.90
2022-11-08T07:15:45.528Z,22.40
2022-11-08T07:18:18.072Z,30.10
2022-11-08T07:20:50.417Z,39.30
2022-11-08T07:23:22.250Z,40.00
2022-11-08T07:25:54.504Z,35.70
2022-11-08T07:31:00.502Z,38.50
2022-11-08T07:33:32.432Z,39.90
2022-11-08T07:36:04.772Z,37.70
2022-11-08T07:38:36.618Z,35.20
2022-11-08T07:41:08.573Z,34.30
2022-11-08T07:43:40.321Z,27.70
2022-11-08T07:46:18.464Z,28.90
2022-11-08T07:48:50.121Z,29.80
2022-11-08T07:51:22.482Z,32.90
2022-11-08T07:53:53.824Z,33.80
2022-11-08T07:56:26.247Z,36.30
2022-11-08T07:58:58.102Z,44.50
2022-11-08T08:01:30.195Z,52.80
2022-11-08T08:04:01.739Z,58.00
2022-11-08T08:06:34.566Z,59.00
2022-11-08T08:09:06.082Z,66.30
2022-11-08T08:11:37.749Z,81.60
2022-11-08T08:14:09.566Z,73.10
2022-11-08T08:16:41.349Z,61.30
2022-11-08T08:19:12.944Z,63.10
2022-11-08T08:21:45.289Z,64.30
2022-11-08T08:24:16.939Z,56.60
2022-11-08T08:26:48.942Z,63.20
2022-11-08T08:29:20.493Z,60.90
2022-11-08T08:34:22.254Z,55.60
2022-11-08T08:36:54.072Z,56.70
2022-11-08T08:39:25.525Z,54.00
2022-11-08T08:41:57.440Z,58.20
2022-11-08T08:44:28.795Z,58.40
2022-11-08T08:47:00.375Z,46.00
2022-11-08T08:49:32.214Z,37.20
2022-11-08T08:52:03.978Z,28.50
2022-11-08T08:54:35.780Z,26.30
2022-11-08T08:57:07.659Z,23.30
2022-11-08T09:02:29.626Z,16.40
2022-11-08T09:05:01.119Z,15.50
2022-11-08T09:10:02.916Z,18.50
2022-11-08T09:12:34.461Z,24.20
2022-11-08T09:15:06.276Z,30.50
2022-11-08T09:17:37.935Z,26.20
2022-11-08T09:22:40.388Z,19.80
2022-11-08T09:25:12.806Z,17.40
2022-11-08T09:27:44.236Z,17.80
2022-11-08T09:30:16.962Z,17.50
2022-11-08T09:33:04.158Z,16.80
2022-11-08T09:35:35.938Z,18.10
2022-11-08T09:40:43.149Z,15.90
2022-11-08T09:43:28.563Z,18.20
2022-11-08T09:45:59.950Z,18.60
2022-11-08T09:48:33.633Z,17.90
2022-11-08T09:51:08.128Z,16.00
2022-11-08T09:53:42.170Z,17.00
2022-11-08T09:56:17.284Z,18.60
2022-11-08T09:58:51.040Z,17.70
2022-11-08T10:01:26.949Z,17.20
2022-11-08T10:04:00.336Z,18.40
2022-11-08T10:06:43.143Z,18.80
2022-11-08T10:09:21.742Z,18.50
2022-11-08T10:12:07.914Z,23.20
2022-11-08T10:14:54.161Z,23.20
2022-11-08T10:17:38.163Z,18.80
2022-11-08T10:20:15.211Z,17.50
2022-11-08T10:22:47.885Z,15.80
2022-11-08T10:25:31.049Z,18.10
2022-11-08T10:28:02.985Z,18.10
2022-11-08T10:30:36.193Z,17.60
2022-11-08T10:33:16.220Z,18.30
2022-11-08T10:35:49.844Z,19.90
2022-11-08T10:38:23.163Z,18.00
2022-11-08T10:40:57.505Z,17.70
2022-11-08T10:43:31.353Z,17.20
2022-11-08T10:46:02.732Z,17.00
2022-11-08T10:48:39.133Z,18.70
2022-11-08T10:51:11.123Z,16.00
2022-11-08T10:53:46.516Z,17.00
2022-11-08T10:56:19.827Z,20.60
2022-11-08T10:58:51.224Z,17.50
2022-11-08T11:01:23.422Z,16.60
2022-11-08T11:03:55.485Z,16.60
2022-11-08T11:06:32.932Z,20.00
2022-11-08T11:09:05.910Z,17.80
2022-11-08T11:11:40.385Z,17.80
2022-11-08T11:14:19.386Z,17.50
2022-11-08T11:17:02.163Z,18.10
2022-11-08T11:19:33.582Z,17.90
2022-11-08T11:22:07.630Z,17.70
2022-11-08T11:24:39.845Z,18.20
2022-11-08T11:27:19.675Z,18.90
2022-11-08T11:29:51.031Z,16.80
2022-11-08T11:32:27.147Z,16.40
2022-11-08T11:34:59.660Z,16.90
2022-11-08T11:37:37.645Z,17.90
2022-11-08T11:40:17.762Z,18.50
2022-11-08T11:42:54.640Z,17.10
2022-11-08T11:45:27.630Z,16.10
2022-11-08T11:48:01.478Z,16.10
2022-11-08T11:50:37.293Z,18.00
2022-11-08T11:53:13.680Z,16.20
2022-11-08T11:56:08.781Z,16.50
2022-11-08T11:58:52.120Z,14.90
2022-11-08T12:01:29.355Z,16.20
2022-11-08T12:04:18.372Z,16.00
2022-11-08T12:06:52.067Z,16.90
2022-11-08T12:09:30.905Z,17.90
2022-11-08T12:12:09.963Z,17.00
2022-11-08T12:14:49.245Z,16.40
2022-11-08T12:17:42.685Z,16.80
2022-11-08T12:20:27.550Z,16.80
2022-11-08T12:23:04.975Z,17.80
2022-11-08T12:25:38.372Z,16.70
2022-11-08T12:28:15.136Z,17.60
2022-11-08T12:30:48.574Z,18.00
2022-11-08T12:33:26.804Z,19.90
2022-11-08T12:36:08.235Z,19.20
2022-11-08T12:38:42.618Z,19.10
2022-11-08T12:41:17.604Z,19.40
2022-11-08T12:43:59.348Z,18.00
2022-11-08T12:49:10.457Z,18.20
2022-11-08T12:51:52.716Z,19.00
2022-11-08T12:54:36.019Z,19.30
2022-11-08T12:57:10.831Z,17.80
2022-11-08T12:59:43.475Z,16.90
2022-11-08T13:02:19.375Z,18.00
2022-11-08T13:04:53.917Z,16.30
2022-11-08T13:07:34.618Z,17.10
2022-11-08T13:10:12.472Z,17.70
2022-11-08T13:12:48.207Z,17.10
2022-11-08T13:15:21.350Z,19.70
2022-11-08T13:18:23.493Z,17.60
2022-11-08T13:23:28.572Z,16.40
2022-11-08T13:26:13.406Z,16.60
2022-11-08T13:28:48.318Z,16.40
2022-11-08T13:31:49.152Z,18.50
2022-11-08T13:34:27.819Z,18.60
2022-11-08T13:37:21.392Z,18.30
2022-11-08T13:40:02.659Z,18.00
2022-11-08T13:42:41.054Z,20.60
2022-11-08T13:45:32.583Z,19.50
2022-11-08T13:48:06.823Z,18.20
2022-11-08T13:50:55.099Z,19.00
2022-11-08T13:53:45.346Z,19.90
2022-11-08T13:56:47.053Z,20.20
2022-11-08T13:59:49.504Z,19.70
2022-11-08T14:02:37.744Z,19.10
2022-11-08T14:05:27.357Z,23.50
2022-11-08T14:08:24.678Z,27.70
2022-11-08T14:11:30.292Z,28.00
2022-11-08T14:14:23.352Z,29.50
2022-11-08T14:17:04.668Z,29.80
2022-11-08T14:19:37.129Z,31.00
2022-11-08T14:22:12.120Z,27.80
2022-11-08T14:24:43.895Z,26.10
2022-11-08T14:27:18.286Z,26.20
2022-11-08T14:29:50.108Z,24.40
2022-11-08T14:32:22.211Z,24.40
2022-11-08T14:34:54.150Z,24.50
2022-11-08T14:37:27.269Z,26.60
2022-11-08T14:39:58.800Z,24.40
2022-11-08T14:42:30.416Z,23.20
2022-11-08T14:45:01.930Z,25.50
2022-11-08T14:47:34.065Z,27.60
2022-11-08T14:50:15.744Z,25.60
2022-11-08T14:55:20.299Z,22.80
2022-11-08T14:57:52.489Z,25.70
2022-11-08T15:00:27.192Z,25.60
2022-11-08T15:03:01.178Z,24.40
2022-11-08T15:05:38.979Z,27.30
2022-11-08T15:08:17.505Z,24.90
2022-11-08T15:10:57.571Z,50.00
2022-11-08T15:13:29.678Z,62.20
2022-11-08T15:16:04.090Z,55.60
2022-11-08T15:18:37.155Z,47.90
2022-11-08T15:21:19.643Z,48.30
2022-11-08T15:23:53.533Z,48.40
2022-11-08T15:26:26.888Z,50.70
2022-11-08T15:29:02.486Z,44.00
2022-11-08T15:31:36.596Z,35.00
2022-11-08T15:34:08.461Z,35.60
2022-11-08T15:39:19.571Z,36.70
2022-11-08T15:42:01.159Z,38.50
2022-11-08T15:44:33.431Z,44.30
2022-11-08T15:49:35.113Z,35.20
2022-11-08T15:52:06.758Z,36.80
2022-11-08T15:54:38.620Z,37.30
2022-11-08T15:57:11.764Z,34.10
2022-11-08T15:59:43.565Z,35.40
2022-11-08T16:02:15.456Z,32.00
2022-11-08T16:04:47.030Z,35.30
2022-11-08T16:09:48.349Z,30.00
2022-11-08T16:12:20.190Z,29.50
2022-11-08T16:14:52.527Z,29.70
2022-11-08T16:17:24.266Z,27.60
2022-11-08T16:19:55.723Z,28.20
2022-11-08T16:22:27.102Z,30.80
2022-11-08T16:24:58.464Z,29.10
2022-11-08T16:27:30.148Z,30.50
2022-11-08T16:32:31.682Z,32.30
2022-11-08T16:35:02.979Z,33.90
2022-11-08T16:37:34.470Z,33.50
2022-11-08T16:40:06.881Z,33.60
2022-11-08T16:42:38.409Z,33.10
2022-11-08T16:47:41.570Z,29.20
2022-11-08T16:50:19.112Z,31.20
2022-11-08T16:52:51.065Z,29.70
2022-11-08T16:55:23.048Z,27.80
2022-11-08T16:57:54.616Z,32.60
2022-11-08T17:02:56.416Z,29.20
2022-11-08T17:05:28.500Z,32.10
2022-11-08T17:08:00.432Z,26.90
2022-11-08T17:10:32.678Z,28.80
2022-11-08T17:13:04.415Z,37.30
2022-11-08T17:18:06.186Z,32.40
2022-11-08T17:20:37.487Z,31.50
2022-11-08T17:23:09.218Z,33.20
2022-11-08T17:28:11.523Z,28.90
2022-11-08T17:30:44.793Z,36.60
2022-11-08T17:33:16.811Z,33.90
2022-11-08T17:35:48.744Z,35.30
2022-11-08T17:38:20.156Z,30.40
2022-11-08T17:40:51.711Z,34.20
2022-11-08T17:45:55.751Z,32.20
2022-11-08T17:48:27.372Z,33.20
2022-11-08T17:53:30.179Z,36.70
2022-11-08T17:56:02.266Z,32.00
2022-11-08T17:58:34.413Z,36.00
2022-11-08T18:01:07.774Z,33.70
2022-11-08T18:03:39.352Z,32.40
2022-11-08T18:06:12.695Z,37.60
2022-11-08T18:08:45.435Z,33.60
2022-11-08T18:11:17.407Z,34.30
2022-11-08T18:13:48.918Z,33.30
2022-11-08T18:16:22.792Z,35.10
2022-11-08T18:18:54.303Z,35.50
2022-11-08T18:21:26.140Z,34.00
2022-11-08T18:24:00.038Z,36.10
2022-11-08T18:26:31.677Z,35.70
2022-11-08T18:31:34.183Z,35.40
2022-11-08T18:34:05.682Z,36.40
2022-11-08T18:39:08.004Z,36.10
2022-11-08T18:41:39.971Z,34.10
2022-11-08T18:44:11.575Z,34.40
2022-11-08T18:49:15.806Z,35.80
2022-11-08T18:51:52.788Z,38.30
2022-11-08T18:54:24.734Z,38.70
2022-11-08T18:56:56.607Z,42.10
2022-11-08T18:59:28.104Z,36.70
2022-11-08T19:01:59.539Z,36.80
2022-11-08T19:04:31.223Z,38.90
2022-11-08T19:07:02.900Z,36.70
2022-11-08T19:09:34.667Z,38.10
2022-11-08T19:14:37.780Z,40.20
2022-11-08T19:19:39.457Z,40.20
2022-11-08T19:22:11.222Z,36.70
2022-11-08T19:27:12.608Z,44.70
2022-11-08T19:29:44.271Z,43.70
2022-11-08T19:32:15.992Z,40.70
2022-11-08T19:34:49.989Z,41.60
2022-11-08T19:37:21.899Z,39.00
2022-11-08T19:39:53.406Z,41.50
2022-11-08T19:42:25.251Z,41.00
2022-11-08T19:47:27.012Z,44.60
2022-11-08T19:49:59.072Z,48.00
2022-11-08T19:52:30.633Z,49.50
2022-11-08T19:57:35.237Z,48.00
2022-11-08T20:00:10.606Z,45.50
2022-11-08T20:02:45.727Z,47.90
2022-11-08T20:05:17.418Z,42.20
2022-11-08T20:07:49.297Z,47.20
2022-11-08T20:10:20.854Z,45.60
2022-11-08T20:15:22.676Z,42.60
2022-11-08T20:17:54.063Z,41.90
2022-11-08T20:20:25.724Z,42.20
2022-11-08T20:22:57.330Z,44.90
2022-11-08T20:27:58.636Z,43.80
2022-11-08T20:30:30.286Z,42.40
2022-11-08T20:35:31.717Z,45.60
2022-11-08T20:40:33.159Z,49.80
2022-11-08T20:45:35.020Z,51.00
2022-11-08T20:50:36.656Z,50.20
2022-11-08T20:53:08.222Z,50.10
2022-11-08T20:58:10.016Z,54.30
2022-11-08T21:00:57.702Z,53.20
2022-11-08T21:03:30.144Z,51.90
2022-11-08T21:06:02.898Z,52.80
2022-11-08T21:13:55.711Z,50.60
2022-11-08T21:16:33.316Z,52.20
2022-11-08T21:19:07.122Z,55.20
2022-11-08T21:21:38.748Z,52.30
2022-11-08T21:26:40.727Z,48.90
2022-11-08T21:29:12.141Z,50.40
2022-11-08T21:31:43.732Z,51.40
2022-11-08T21:36:45.064Z,50.60
2022-11-08T21:41:46.590Z,50.30
2022-11-08T21:44:20.073Z,53.60
2022-11-08T21:46:52.003Z,48.10
2022-11-08T21:51:53.177Z,46.30
2022-11-08T21:54:24.982Z,45.30
2022-11-08T21:56:56.537Z,51.20
2022-11-08T22:01:57.638Z,49.40
2022-11-08T22:04:28.989Z,51.30
2022-11-08T22:09:30.610Z,51.90
2022-11-08T22:12:02.067Z,50.70
2022-11-08T22:14:33.735Z,50.80
2022-11-08T22:19:35.747Z,48.90
2022-11-08T22:22:07.160Z,50.70
2022-11-08T22:24:38.545Z,50.60
2022-11-08T22:27:09.932Z,49.60
2022-11-08T22:29:41.389Z,54.10
2022-11-08T22:32:13.278Z,53.70
2022-11-08T22:34:44.650Z,49.00
2022-11-08T22:37:16.092Z,52.60
2022-11-08T22:39:47.526Z,49.20
2022-11-08T22:42:18.984Z,48.60
2022-11-08T22:44:50.358Z,47.50
2022-11-08T22:49:51.938Z,43.30
2022-11-08T22:54:53.029Z,44.00
2022-11-08T22:57:24.517Z,44.10
2022-11-08T22:59:55.870Z,46.00
2022-11-08T23:02:32.754Z,45.00
2022-11-08T23:05:04.686Z,46.30
2022-11-08T23:10:06.533Z,43.90
2022-11-08T23:12:55.744Z,43.40
2022-11-08T23:15:50.347Z,48.00
2022-11-08T23:18:21.850Z,43.00
2022-11-08T23:21:15.475Z,51.40
2022-11-08T23:24:19.136Z,47.30
2022-11-08T23:27:08.327Z,50.70
2022-11-08T23:29:57.693Z,51.20
2022-11-08T23:32:29.369Z,51.50
2022-11-08T23:35:01.076Z,44.60
2022-11-08T23:40:20.224Z,46.00
2022-11-08T23:43:10.388Z,42.60
2022-11-08T23:45:41.761Z,46.50
2022-11-08T23:48:13.283Z,43.80
2022-11-08T23:53:15.098Z,36.20
2022-11-08T23:55:46.953Z,40.80
2022-11-08T23:58:19.259Z,42.90
